Main page
METAR-TAF:

METAR-TAF

Airports :

Lydd Airport

Lydd, England

latitude: 50-57N, longitude: 000-56E, elevation: 3 m

Current weather observation

The report was made 25 minutes ago, at 13:20 UTC
Wind 11 kt from the Southwest
Temperature 10°C
Humidity 71%
Pressure 1000 hPa
Visibility 10 km or more
Few clouds at a height of 2900 ft

METAR: EGMD 131320Z 22011KT 9999 FEW029 10/05 Q1000

Time: 13:45 (13:45 UTC)

Forecast

The report was made 2 hours and 47 minutes ago, at 10:58 UTC
Forecast valid from 13 at 12 UTC to 13 at 21 UTC
Wind 8 kt from the West
Visibility 10 km or more
Scattered clouds at a height of 2800 ft
Becoming
from 13 at 12 UTC to 13 at 15 UTC
Wind 10 kt from the South/Southwest

TAF: EGMD 131058Z 1312/1321 27008KT 9999 SCT028 BECMG 1312/1315 21010KT

Weather observations and forecasts of more than 4000 airports (METAR and TAF reports).

The available stations are represented by yellow and red dots on the map.

Hover mouse over dot to see the name of the station.

Then click to see weather observations and forecasts.

To change the map : click on the green buttons with a black cross to zoom in, on the green button with a dash to zoom out, or on the green arrows for adjacent maps.


METAR-TAF: